sensor_id;sensor_type;location;lat;lon;timestamp;P1;durP1;ratioP1;P2;durP2;ratioP2
44564;SDS011;30275;51.822;-0.326;2022-10-20T00:01:10;25.77;;;13.50;;
44564;SDS011;30275;51.822;-0.326;2022-10-20T00:03:36;34.78;;;13.05;;
44564;SDS011;30275;51.822;-0.326;2022-10-20T00:06:09;27.00;;;14.23;;
44564;SDS011;30275;51.822;-0.326;2022-10-20T00:08:41;27.05;;;13.82;;
44564;SDS011;30275;51.822;-0.326;2022-10-20T00:11:08;31.27;;;14.55;;
44564;SDS011;30275;51.822;-0.326;2022-10-20T00:13:35;30.50;;;14.00;;
44564;SDS011;30275;51.822;-0.326;2022-10-20T00:16:02;29.13;;;14.05;;
44564;SDS011;30275;51.822;-0.326;2022-10-20T00:18:28;31.55;;;13.80;;
44564;SDS011;30275;51.822;-0.326;2022-10-20T00:20:53;30.13;;;14.07;;
44564;SDS011;30275;51.822;-0.326;2022-10-20T00:23:19;28.40;;;13.38;;
44564;SDS011;30275;51.822;-0.326;2022-10-20T00:25:45;35.72;;;14.38;;
44564;SDS011;30275;51.822;-0.326;2022-10-20T00:28:11;35.08;;;14.93;;
44564;SDS011;30275;51.822;-0.326;2022-10-20T00:30:37;28.63;;;14.82;;
44564;SDS011;30275;51.822;-0.326;2022-10-20T00:33:02;28.48;;;15.57;;
44564;SDS011;30275;51.822;-0.326;2022-10-20T00:35:29;35.97;;;16.00;;
44564;SDS011;30275;51.822;-0.326;2022-10-20T00:37:55;29.45;;;14.90;;
44564;SDS011;30275;51.822;-0.326;2022-10-20T00:40:21;29.42;;;15.88;;
44564;SDS011;30275;51.822;-0.326;2022-10-20T00:42:48;33.63;;;16.90;;
44564;SDS011;30275;51.822;-0.326;2022-10-20T00:45:16;35.97;;;16.67;;
44564;SDS011;30275;51.822;-0.326;2022-10-20T00:53:04;32.30;;;16.73;;
44564;SDS011;30275;51.822;-0.326;2022-10-20T00:55:31;33.63;;;15.18;;
44564;SDS011;30275;51.822;-0.326;2022-10-20T00:58:00;35.75;;;16.10;;
44564;SDS011;30275;51.822;-0.326;2022-10-20T01:00:26;30.75;;;15.60;;
44564;SDS011;30275;51.822;-0.326;2022-10-20T01:02:53;35.35;;;17.60;;
44564;SDS011;30275;51.822;-0.326;2022-10-20T01:05:21;33.65;;;17.42;;
44564;SDS011;30275;51.822;-0.326;2022-10-20T01:07:48;34.38;;;17.15;;
44564;SDS011;30275;51.822;-0.326;2022-10-20T01:10:13;32.47;;;16.30;;
44564;SDS011;30275;51.822;-0.326;2022-10-20T01:12:44;29.23;;;16.77;;
44564;SDS011;30275;51.822;-0.326;2022-10-20T01:23:39;34.88;;;16.67;;
44564;SDS011;30275;51.822;-0.326;2022-10-20T01:26:48;34.80;;;17.50;;
44564;SDS011;30275;51.822;-0.326;2022-10-20T01:29:36;34.80;;;17.60;;
44564;SDS011;30275;51.822;-0.326;2022-10-20T01:32:28;33.50;;;15.25;;
44564;SDS011;30275;51.822;-0.326;2022-10-20T01:37:38;32.05;;;17.02;;
44564;SDS011;30275;51.822;-0.326;2022-10-20T01:40:51;34.35;;;18.00;;
44564;SDS011;30275;51.822;-0.326;2022-10-20T01:43:03;32.17;;;17.60;;
44564;SDS011;30275;51.822;-0.326;2022-10-20T01:45:32;35.55;;;18.42;;
44564;SDS011;30275;51.822;-0.326;2022-10-20T01:48:01;35.08;;;18.08;;
44564;SDS011;30275;51.822;-0.326;2022-10-20T01:50:30;34.10;;;17.63;;
44564;SDS011;30275;51.822;-0.326;2022-10-20T01:52:58;39.70;;;19.30;;
44564;SDS011;30275;51.822;-0.326;2022-10-20T01:55:24;41.97;;;20.05;;
44564;SDS011;30275;51.822;-0.326;2022-10-20T02:00:41;37.50;;;18.63;;
44564;SDS011;30275;51.822;-0.326;2022-10-20T02:06:44;37.15;;;17.63;;
44564;SDS011;30275;51.822;-0.326;2022-10-20T02:09:07;38.47;;;17.98;;
44564;SDS011;30275;51.822;-0.326;2022-10-20T02:11:55;38.40;;;18.73;;
44564;SDS011;30275;51.822;-0.326;2022-10-20T02:14:25;40.33;;;19.25;;
44564;SDS011;30275;51.822;-0.326;2022-10-20T02:16:52;34.60;;;19.30;;
44564;SDS011;30275;51.822;-0.326;2022-10-20T02:19:22;40.10;;;20.70;;
44564;SDS011;30275;51.822;-0.326;2022-10-20T02:21:52;42.58;;;19.50;;
44564;SDS011;30275;51.822;-0.326;2022-10-20T02:24:20;45.88;;;21.00;;
44564;SDS011;30275;51.822;-0.326;2022-10-20T02:26:50;45.20;;;21.15;;
44564;SDS011;30275;51.822;-0.326;2022-10-20T02:29:19;40.92;;;19.60;;
44564;SDS011;30275;51.822;-0.326;2022-10-20T02:31:49;41.13;;;20.55;;
44564;SDS011;30275;51.822;-0.326;2022-10-20T02:34:15;43.50;;;22.02;;
44564;SDS011;30275;51.822;-0.326;2022-10-20T02:36:41;44.35;;;22.23;;
44564;SDS011;30275;51.822;-0.326;2022-10-20T02:39:07;36.40;;;19.52;;
44564;SDS011;30275;51.822;-0.326;2022-10-20T02:41:34;45.35;;;21.90;;
44564;SDS011;30275;51.822;-0.326;2022-10-20T02:44:00;44.92;;;22.63;;
44564;SDS011;30275;51.822;-0.326;2022-10-20T02:46:26;42.55;;;20.70;;
44564;SDS011;30275;51.822;-0.326;2022-10-20T02:48:51;47.20;;;22.15;;
44564;SDS011;30275;51.822;-0.326;2022-10-20T02:51:17;40.58;;;22.40;;
44564;SDS011;30275;51.822;-0.326;2022-10-20T02:53:43;46.90;;;21.60;;
44564;SDS011;30275;51.822;-0.326;2022-10-20T02:56:09;42.53;;;21.83;;
44564;SDS011;30275;51.822;-0.326;2022-10-20T02:58:35;36.00;;;21.70;;
44564;SDS011;30275;51.822;-0.326;2022-10-20T03:01:02;39.28;;;20.50;;
44564;SDS011;30275;51.822;-0.326;2022-10-20T03:03:28;38.20;;;21.90;;
44564;SDS011;30275;51.822;-0.326;2022-10-20T03:05:54;44.40;;;23.23;;
44564;SDS011;30275;51.822;-0.326;2022-10-20T03:08:19;41.45;;;22.40;;
44564;SDS011;30275;51.822;-0.326;2022-10-20T03:10:45;45.05;;;22.80;;
44564;SDS011;30275;51.822;-0.326;2022-10-20T03:13:11;43.05;;;22.52;;
44564;SDS011;30275;51.822;-0.326;2022-10-20T03:15:38;49.17;;;24.75;;
44564;SDS011;30275;51.822;-0.326;2022-10-20T03:18:03;45.88;;;23.17;;
44564;SDS011;30275;51.822;-0.326;2022-10-20T03:20:29;46.08;;;23.55;;
44564;SDS011;30275;51.822;-0.326;2022-10-20T03:22:55;46.35;;;21.63;;
44564;SDS011;30275;51.822;-0.326;2022-10-20T03:25:20;48.80;;;25.42;;
44564;SDS011;30275;51.822;-0.326;2022-10-20T03:27:46;48.55;;;24.60;;
44564;SDS011;30275;51.822;-0.326;2022-10-20T03:30:11;45.58;;;24.73;;
44564;SDS011;30275;51.822;-0.326;2022-10-20T03:32:37;49.05;;;24.17;;
44564;SDS011;30275;51.822;-0.326;2022-10-20T03:35:03;45.08;;;23.35;;
44564;SDS011;30275;51.822;-0.326;2022-10-20T03:37:28;48.55;;;24.40;;
44564;SDS011;30275;51.822;-0.326;2022-10-20T03:39:54;46.13;;;23.92;;
44564;SDS011;30275;51.822;-0.326;2022-10-20T03:42:20;54.53;;;24.95;;
44564;SDS011;30275;51.822;-0.326;2022-10-20T03:44:45;46.15;;;23.55;;
44564;SDS011;30275;51.822;-0.326;2022-10-20T03:47:11;48.38;;;24.33;;
44564;SDS011;30275;51.822;-0.326;2022-10-20T03:49:38;55.75;;;24.65;;
44564;SDS011;30275;51.822;-0.326;2022-10-20T03:52:04;51.05;;;27.52;;
44564;SDS011;30275;51.822;-0.326;2022-10-20T03:54:30;50.70;;;26.95;;
44564;SDS011;30275;51.822;-0.326;2022-10-20T03:56:55;49.97;;;25.67;;
44564;SDS011;30275;51.822;-0.326;2022-10-20T03:59:21;49.22;;;24.95;;
44564;SDS011;30275;51.822;-0.326;2022-10-20T04:01:47;54.42;;;26.85;;
44564;SDS011;30275;51.822;-0.326;2022-10-20T04:04:12;46.92;;;24.80;;
44564;SDS011;30275;51.822;-0.326;2022-10-20T04:06:38;56.45;;;25.92;;
44564;SDS011;30275;51.822;-0.326;2022-10-20T04:09:04;51.40;;;27.02;;
44564;SDS011;30275;51.822;-0.326;2022-10-20T04:11:30;56.17;;;25.63;;
44564;SDS011;30275;51.822;-0.326;2022-10-20T04:13:56;58.28;;;26.50;;
44564;SDS011;30275;51.822;-0.326;2022-10-20T04:16:22;53.13;;;26.35;;
44564;SDS011;30275;51.822;-0.326;2022-10-20T04:18:48;53.22;;;26.70;;
44564;SDS011;30275;51.822;-0.326;2022-10-20T04:21:15;55.10;;;27.60;;
44564;SDS011;30275;51.822;-0.326;2022-10-20T04:23:41;53.38;;;27.98;;
44564;SDS011;30275;51.822;-0.326;2022-10-20T04:26:10;55.55;;;27.77;;
44564;SDS011;30275;51.822;-0.326;2022-10-20T04:28:37;58.50;;;27.48;;
44564;SDS011;30275;51.822;-0.326;2022-10-20T04:31:03;64.43;;;29.13;;
44564;SDS011;30275;51.822;-0.326;2022-10-20T04:33:30;61.15;;;28.13;;
44564;SDS011;30275;51.822;-0.326;2022-10-20T04:36:05;66.90;;;30.33;;
44564;SDS011;30275;51.822;-0.326;2022-10-20T04:38:34;55.70;;;27.35;;
44564;SDS011;30275;51.822;-0.326;2022-10-20T04:41:01;60.05;;;28.77;;
44564;SDS011;30275;51.822;-0.326;2022-10-20T04:43:28;65.60;;;29.48;;
44564;SDS011;30275;51.822;-0.326;2022-10-20T04:45:58;57.60;;;28.70;;
44564;SDS011;30275;51.822;-0.326;2022-10-20T04:48:24;59.40;;;28.50;;
44564;SDS011;30275;51.822;-0.326;2022-10-20T04:51:00;63.00;;;30.27;;
44564;SDS011;30275;51.822;-0.326;2022-10-20T04:53:27;66.30;;;29.75;;
44564;SDS011;30275;51.822;-0.326;2022-10-20T04:55:53;69.20;;;30.60;;
44564;SDS011;30275;51.822;-0.326;2022-10-20T04:58:20;71.38;;;30.95;;
44564;SDS011;30275;51.822;-0.326;2022-10-20T05:00:46;70.85;;;33.55;;
44564;SDS011;30275;51.822;-0.326;2022-10-20T05:03:12;71.57;;;30.63;;
44564;SDS011;30275;51.822;-0.326;2022-10-20T05:05:38;66.53;;;30.48;;
44564;SDS011;30275;51.822;-0.326;2022-10-20T05:08:03;68.20;;;29.52;;
44564;SDS011;30275;51.822;-0.326;2022-10-20T05:10:29;66.88;;;31.33;;
44564;SDS011;30275;51.822;-0.326;2022-10-20T05:12:54;70.18;;;33.97;;
44564;SDS011;30275;51.822;-0.326;2022-10-20T05:15:20;75.47;;;32.10;;
44564;SDS011;30275;51.822;-0.326;2022-10-20T05:17:45;76.15;;;31.70;;
44564;SDS011;30275;51.822;-0.326;2022-10-20T05:20:11;72.32;;;30.48;;
44564;SDS011;30275;51.822;-0.326;2022-10-20T05:22:37;67.57;;;29.75;;
44564;SDS011;30275;51.822;-0.326;2022-10-20T05:25:03;73.05;;;34.35;;
44564;SDS011;30275;51.822;-0.326;2022-10-20T05:27:29;67.43;;;30.02;;
44564;SDS011;30275;51.822;-0.326;2022-10-20T05:29:54;75.00;;;31.90;;
44564;SDS011;30275;51.822;-0.326;2022-10-20T05:32:20;73.57;;;31.38;;
44564;SDS011;30275;51.822;-0.326;2022-10-20T05:34:46;70.20;;;31.33;;
44564;SDS011;30275;51.822;-0.326;2022-10-20T05:37:11;73.53;;;31.45;;
44564;SDS011;30275;51.822;-0.326;2022-10-20T05:39:37;64.50;;;30.50;;
44564;SDS011;30275;51.822;-0.326;2022-10-20T05:42:02;77.13;;;30.20;;
44564;SDS011;30275;51.822;-0.326;2022-10-20T05:44:28;76.95;;;31.63;;
44564;SDS011;30275;51.822;-0.326;2022-10-20T05:46:54;66.72;;;28.98;;
44564;SDS011;30275;51.822;-0.326;2022-10-20T05:49:20;78.05;;;32.85;;
44564;SDS011;30275;51.822;-0.326;2022-10-20T05:51:47;65.80;;;30.33;;
44564;SDS011;30275;51.822;-0.326;2022-10-20T05:54:13;64.88;;;28.02;;
44564;SDS011;30275;51.822;-0.326;2022-10-20T05:56:39;58.03;;;27.88;;
44564;SDS011;30275;51.822;-0.326;2022-10-20T05:59:05;57.78;;;26.65;;
44564;SDS011;30275;51.822;-0.326;2022-10-20T06:01:31;56.83;;;26.00;;
44564;SDS011;30275;51.822;-0.326;2022-10-20T06:04:24;54.83;;;26.50;;
44564;SDS011;30275;51.822;-0.326;2022-10-20T06:06:52;54.85;;;28.30;;
44564;SDS011;30275;51.822;-0.326;2022-10-20T06:09:18;54.28;;;27.67;;
44564;SDS011;30275;51.822;-0.326;2022-10-20T06:11:45;62.58;;;27.77;;
44564;SDS011;30275;51.822;-0.326;2022-10-20T06:14:11;50.88;;;24.60;;
44564;SDS011;30275;51.822;-0.326;2022-10-20T06:16:37;44.63;;;22.80;;
44564;SDS011;30275;51.822;-0.326;2022-10-20T06:19:02;48.28;;;23.23;;
44564;SDS011;30275;51.822;-0.326;2022-10-20T06:21:30;42.78;;;22.20;;
44564;SDS011;30275;51.822;-0.326;2022-10-20T06:23:57;44.35;;;22.88;;
44564;SDS011;30275;51.822;-0.326;2022-10-20T06:26:25;37.55;;;20.23;;
44564;SDS011;30275;51.822;-0.326;2022-10-20T06:28:56;35.88;;;19.38;;
44564;SDS011;30275;51.822;-0.326;2022-10-20T06:31:30;33.88;;;20.42;;
44564;SDS011;30275;51.822;-0.326;2022-10-20T06:33:58;39.72;;;20.95;;
44564;SDS011;30275;51.822;-0.326;2022-10-20T06:36:25;39.15;;;21.75;;
44564;SDS011;30275;51.822;-0.326;2022-10-20T06:38:52;39.63;;;21.98;;
44564;SDS011;30275;51.822;-0.326;2022-10-20T06:41:19;32.58;;;18.75;;
44564;SDS011;30275;51.822;-0.326;2022-10-20T06:43:44;36.53;;;20.40;;
44564;SDS011;30275;51.822;-0.326;2022-10-20T06:46:12;37.55;;;20.98;;
44564;SDS011;30275;51.822;-0.326;2022-10-20T06:48:39;40.22;;;21.80;;
44564;SDS011;30275;51.822;-0.326;2022-10-20T06:51:15;40.47;;;20.98;;
44564;SDS011;30275;51.822;-0.326;2022-10-20T06:53:51;33.60;;;18.60;;
44564;SDS011;30275;51.822;-0.326;2022-10-20T06:56:18;37.15;;;20.52;;
44564;SDS011;30275;51.822;-0.326;2022-10-20T06:58:46;34.22;;;19.67;;
44564;SDS011;30275;51.822;-0.326;2022-10-20T07:03:43;30.45;;;18.70;;
44564;SDS011;30275;51.822;-0.326;2022-10-20T07:06:12;30.63;;;18.67;;
44564;SDS011;30275;51.822;-0.326;2022-10-20T07:08:39;28.73;;;17.95;;
44564;SDS011;30275;51.822;-0.326;2022-10-20T07:11:09;29.48;;;17.65;;
44564;SDS011;30275;51.822;-0.326;2022-10-20T07:13:37;26.27;;;17.52;;
44564;SDS011;30275;51.822;-0.326;2022-10-20T07:16:03;26.17;;;16.80;;
44564;SDS011;30275;51.822;-0.326;2022-10-20T07:18:31;30.25;;;17.05;;
44564;SDS011;30275;51.822;-0.326;2022-10-20T07:20:57;32.28;;;17.00;;
44564;SDS011;30275;51.822;-0.326;2022-10-20T07:23:25;30.38;;;16.60;;
44564;SDS011;30275;51.822;-0.326;2022-10-20T07:25:52;29.33;;;17.70;;
44564;SDS011;30275;51.822;-0.326;2022-10-20T07:28:24;32.42;;;17.45;;
44564;SDS011;30275;51.822;-0.326;2022-10-20T07:30:50;29.42;;;17.45;;
44564;SDS011;30275;51.822;-0.326;2022-10-20T07:33:16;28.52;;;17.00;;
44564;SDS011;30275;51.822;-0.326;2022-10-20T07:35:41;32.05;;;18.27;;
44564;SDS011;30275;51.822;-0.326;2022-10-20T07:38:07;30.75;;;18.23;;
44564;SDS011;30275;51.822;-0.326;2022-10-20T07:40:33;34.22;;;17.88;;
44564;SDS011;30275;51.822;-0.326;2022-10-20T07:42:58;47.35;;;17.75;;
44564;SDS011;30275;51.822;-0.326;2022-10-20T07:45:24;31.77;;;16.85;;
44564;SDS011;30275;51.822;-0.326;2022-10-20T07:47:49;35.38;;;18.15;;
44564;SDS011;30275;51.822;-0.326;2022-10-20T07:50:15;36.15;;;17.60;;
44564;SDS011;30275;51.822;-0.326;2022-10-20T07:52:41;31.38;;;17.08;;
44564;SDS011;30275;51.822;-0.326;2022-10-20T07:55:06;32.40;;;16.88;;
44564;SDS011;30275;51.822;-0.326;2022-10-20T07:57:32;43.50;;;17.08;;
44564;SDS011;30275;51.822;-0.326;2022-10-20T07:59:58;31.38;;;18.00;;
44564;SDS011;30275;51.822;-0.326;2022-10-20T08:02:24;36.97;;;18.40;;
44564;SDS011;30275;51.822;-0.326;2022-10-20T08:04:49;32.97;;;18.35;;
44564;SDS011;30275;51.822;-0.326;2022-10-20T08:07:15;40.78;;;17.73;;
44564;SDS011;30275;51.822;-0.326;2022-10-20T08:09:41;32.10;;;17.27;;
44564;SDS011;30275;51.822;-0.326;2022-10-20T08:12:07;33.35;;;18.27;;
44564;SDS011;30275;51.822;-0.326;2022-10-20T08:14:33;48.50;;;18.77;;
44564;SDS011;30275;51.822;-0.326;2022-10-20T08:17:00;36.97;;;19.23;;
44564;SDS011;30275;51.822;-0.326;2022-10-20T08:19:27;40.83;;;19.70;;
44564;SDS011;30275;51.822;-0.326;2022-10-20T08:21:53;40.72;;;19.13;;
44564;SDS011;30275;51.822;-0.326;2022-10-20T08:24:19;34.72;;;18.80;;
44564;SDS011;30275;51.822;-0.326;2022-10-20T08:26:44;51.47;;;20.27;;
44564;SDS011;30275;51.822;-0.326;2022-10-20T08:29:10;38.67;;;19.60;;
44564;SDS011;30275;51.822;-0.326;2022-10-20T08:31:36;43.90;;;20.88;;
44564;SDS011;30275;51.822;-0.326;2022-10-20T08:34:02;43.20;;;20.98;;
44564;SDS011;30275;51.822;-0.326;2022-10-20T08:36:28;45.67;;;22.10;;
44564;SDS011;30275;51.822;-0.326;2022-10-20T08:38:54;52.70;;;22.58;;
44564;SDS011;30275;51.822;-0.326;2022-10-20T08:41:24;46.92;;;20.98;;
44564;SDS011;30275;51.822;-0.326;2022-10-20T08:43:53;40.58;;;19.55;;
44564;SDS011;30275;51.822;-0.326;2022-10-20T08:46:22;45.88;;;22.42;;
44564;SDS011;30275;51.822;-0.326;2022-10-20T08:48:58;46.30;;;20.80;;
44564;SDS011;30275;51.822;-0.326;2022-10-20T08:51:32;45.25;;;22.40;;
44564;SDS011;30275;51.822;-0.326;2022-10-20T08:54:02;47.85;;;21.63;;
44564;SDS011;30275;51.822;-0.326;2022-10-20T08:56:29;46.92;;;22.83;;
44564;SDS011;30275;51.822;-0.326;2022-10-20T08:58:58;46.05;;;21.60;;
44564;SDS011;30275;51.822;-0.326;2022-10-20T09:01:26;46.25;;;23.10;;
44564;SDS011;30275;51.822;-0.326;2022-10-20T09:03:58;44.58;;;22.40;;
44564;SDS011;30275;51.822;-0.326;2022-10-20T09:06:28;43.13;;;22.30;;
44564;SDS011;30275;51.822;-0.326;2022-10-20T09:08:54;41.42;;;20.80;;
44564;SDS011;30275;51.822;-0.326;2022-10-20T09:11:23;35.28;;;19.48;;
44564;SDS011;30275;51.822;-0.326;2022-10-20T09:13:52;39.78;;;19.83;;
44564;SDS011;30275;51.822;-0.326;2022-10-20T09:16:28;39.70;;;20.38;;
44564;SDS011;30275;51.822;-0.326;2022-10-20T09:19:02;38.33;;;18.60;;
44564;SDS011;30275;51.822;-0.326;2022-10-20T09:21:30;38.25;;;18.95;;
44564;SDS011;30275;51.822;-0.326;2022-10-20T09:23:59;36.15;;;18.30;;
44564;SDS011;30275;51.822;-0.326;2022-10-20T09:26:34;31.10;;;16.77;;
44564;SDS011;30275;51.822;-0.326;2022-10-20T09:31:32;27.40;;;15.10;;
44564;SDS011;30275;51.822;-0.326;2022-10-20T09:34:44;30.90;;;17.30;;
44564;SDS011;30275;51.822;-0.326;2022-10-20T09:39:39;28.40;;;15.80;;
44564;SDS011;30275;51.822;-0.326;2022-10-20T09:44:50;26.00;;;15.18;;
44564;SDS011;30275;51.822;-0.326;2022-10-20T09:47:26;25.55;;;14.48;;
44564;SDS011;30275;51.822;-0.326;2022-10-20T09:49:54;22.90;;;14.40;;
44564;SDS011;30275;51.822;-0.326;2022-10-20T09:52:24;23.92;;;14.65;;
44564;SDS011;30275;51.822;-0.326;2022-10-20T09:54:58;21.80;;;12.85;;
44564;SDS011;30275;51.822;-0.326;2022-10-20T09:57:25;21.90;;;12.57;;
44564;SDS011;30275;51.822;-0.326;2022-10-20T09:59:51;21.02;;;12.73;;
44564;SDS011;30275;51.822;-0.326;2022-10-20T10:04:45;21.83;;;12.13;;
44564;SDS011;30275;51.822;-0.326;2022-10-20T10:12:24;22.70;;;13.10;;
44564;SDS011;30275;51.822;-0.326;2022-10-20T10:14:53;17.80;;;11.52;;
44564;SDS011;30275;51.822;-0.326;2022-10-20T10:19:53;17.52;;;10.98;;
44564;SDS011;30275;51.822;-0.326;2022-10-20T10:22:19;16.08;;;11.25;;
44564;SDS011;30275;51.822;-0.326;2022-10-20T10:24:45;12.60;;;8.20;;
44564;SDS011;30275;51.822;-0.326;2022-10-20T10:27:32;14.00;;;8.57;;
44564;SDS011;30275;51.822;-0.326;2022-10-20T10:32:55;7.03;;;4.68;;
44564;SDS011;30275;51.822;-0.326;2022-10-20T10:35:25;5.82;;;3.30;;
44564;SDS011;30275;51.822;-0.326;2022-10-20T10:37:57;4.80;;;3.15;;
44564;SDS011;30275;51.822;-0.326;2022-10-20T10:40:31;5.75;;;2.88;;
44564;SDS011;30275;51.822;-0.326;2022-10-20T10:45:37;4.47;;;2.25;;
44564;SDS011;30275;51.822;-0.326;2022-10-20T10:50:51;4.30;;;2.17;;
44564;SDS011;30275;51.822;-0.326;2022-10-20T10:56:41;4.18;;;2.95;;
44564;SDS011;30275;51.822;-0.326;2022-10-20T10:59:19;5.15;;;2.97;;
44564;SDS011;30275;51.822;-0.326;2022-10-20T11:12:49;5.72;;;3.80;;
44564;SDS011;30275;51.822;-0.326;2022-10-20T11:18:23;5.28;;;3.92;;
44564;SDS011;30275;51.822;-0.326;2022-10-20T11:29:04;6.30;;;3.97;;
44564;SDS011;30275;51.822;-0.326;2022-10-20T11:31:39;7.72;;;4.18;;
44564;SDS011;30275;51.822;-0.326;2022-10-20T11:34:25;6.32;;;4.13;;
44564;SDS011;30275;51.822;-0.326;2022-10-20T11:39:56;8.20;;;4.35;;
44564;SDS011;30275;51.822;-0.326;2022-10-20T11:42:40;7.25;;;4.43;;
44564;SDS011;30275;51.822;-0.326;2022-10-20T11:47:48;5.45;;;3.72;;
44564;SDS011;30275;51.822;-0.326;2022-10-20T11:50:20;6.53;;;3.42;;
44564;SDS011;30275;51.822;-0.326;2022-10-20T11:52:56;6.40;;;4.15;;
44564;SDS011;30275;51.822;-0.326;2022-10-20T12:04:08;6.25;;;4.03;;
44564;SDS011;30275;51.822;-0.326;2022-10-20T12:07:01;7.07;;;3.92;;
44564;SDS011;30275;51.822;-0.326;2022-10-20T12:12:35;6.00;;;3.72;;
44564;SDS011;30275;51.822;-0.326;2022-10-20T12:15:21;7.13;;;4.28;;
44564;SDS011;30275;51.822;-0.326;2022-10-20T12:18:15;6.93;;;4.10;;
44564;SDS011;30275;51.822;-0.326;2022-10-20T12:20:50;7.40;;;3.83;;
44564;SDS011;30275;51.822;-0.326;2022-10-20T12:29:00;8.20;;;4.07;;
44564;SDS011;30275;51.822;-0.326;2022-10-20T12:39:49;7.43;;;4.00;;
44564;SDS011;30275;51.822;-0.326;2022-10-20T12:44:50;9.27;;;4.38;;
44564;SDS011;30275;51.822;-0.326;2022-10-20T12:47:18;7.60;;;4.47;;
44564;SDS011;30275;51.822;-0.326;2022-10-20T12:52:26;6.05;;;3.40;;
44564;SDS011;30275;51.822;-0.326;2022-10-20T12:54:58;5.50;;;3.85;;
44564;SDS011;30275;51.822;-0.326;2022-10-20T12:57:37;5.82;;;3.72;;
44564;SDS011;30275;51.822;-0.326;2022-10-20T13:00:59;6.22;;;3.97;;
44564;SDS011;30275;51.822;-0.326;2022-10-20T13:02:55;6.50;;;4.28;;
44564;SDS011;30275;51.822;-0.326;2022-10-20T13:20:29;8.32;;;4.82;;
44564;SDS011;30275;51.822;-0.326;2022-10-20T13:23:22;8.95;;;5.40;;
44564;SDS011;30275;51.822;-0.326;2022-10-20T13:25:53;6.57;;;4.13;;
44564;SDS011;30275;51.822;-0.326;2022-10-20T13:28:27;6.07;;;3.40;;
44564;SDS011;30275;51.822;-0.326;2022-10-20T13:36:35;3.50;;;1.98;;
44564;SDS011;30275;51.822;-0.326;2022-10-20T13:39:15;3.33;;;2.40;;
44564;SDS011;30275;51.822;-0.326;2022-10-20T13:42:03;4.55;;;2.45;;
44564;SDS011;30275;51.822;-0.326;2022-10-20T13:49:56;4.35;;;3.03;;
44564;SDS011;30275;51.822;-0.326;2022-10-20T13:52:29;5.97;;;3.40;;
44564;SDS011;30275;51.822;-0.326;2022-10-20T13:55:00;5.10;;;3.03;;
44564;SDS011;30275;51.822;-0.326;2022-10-20T13:57:27;7.43;;;4.07;;
44564;SDS011;30275;51.822;-0.326;2022-10-20T13:59:59;4.90;;;3.45;;
44564;SDS011;30275;51.822;-0.326;2022-10-20T14:02:49;6.13;;;2.80;;
44564;SDS011;30275;51.822;-0.326;2022-10-20T14:05:27;4.78;;;2.72;;
44564;SDS011;30275;51.822;-0.326;2022-10-20T14:07:54;5.00;;;2.20;;
44564;SDS011;30275;51.822;-0.326;2022-10-20T14:13:01;4.35;;;2.60;;
44564;SDS011;30275;51.822;-0.326;2022-10-20T14:15:31;4.47;;;2.95;;
44564;SDS011;30275;51.822;-0.326;2022-10-20T14:18:02;5.90;;;3.05;;
44564;SDS011;30275;51.822;-0.326;2022-10-20T14:20:30;6.40;;;3.47;;
44564;SDS011;30275;51.822;-0.326;2022-10-20T14:22:58;6.18;;;2.97;;
44564;SDS011;30275;51.822;-0.326;2022-10-20T14:25:26;6.38;;;3.55;;
44564;SDS011;30275;51.822;-0.326;2022-10-20T14:27:52;8.82;;;4.30;;
44564;SDS011;30275;51.822;-0.326;2022-10-20T14:30:19;6.05;;;3.60;;
44564;SDS011;30275;51.822;-0.326;2022-10-20T14:32:46;6.00;;;3.53;;
44564;SDS011;30275;51.822;-0.326;2022-10-20T14:40:46;3.55;;;2.80;;
44564;SDS011;30275;51.822;-0.326;2022-10-20T14:43:18;4.80;;;2.90;;
44564;SDS011;30275;51.822;-0.326;2022-10-20T14:46:03;4.00;;;2.70;;
44564;SDS011;30275;51.822;-0.326;2022-10-20T14:48:40;5.43;;;2.58;;
44564;SDS011;30275;51.822;-0.326;2022-10-20T14:54:10;6.03;;;3.97;;
44564;SDS011;30275;51.822;-0.326;2022-10-20T14:56:42;5.57;;;2.75;;
44564;SDS011;30275;51.822;-0.326;2022-10-20T14:59:15;5.80;;;3.35;;
44564;SDS011;30275;51.822;-0.326;2022-10-20T15:01:57;4.72;;;2.78;;
44564;SDS011;30275;51.822;-0.326;2022-10-20T15:04:26;6.40;;;3.05;;
44564;SDS011;30275;51.822;-0.326;2022-10-20T15:09:40;8.50;;;3.92;;
44564;SDS011;30275;51.822;-0.326;2022-10-20T15:12:15;6.28;;;3.58;;
44564;SDS011;30275;51.822;-0.326;2022-10-20T15:14:51;6.57;;;3.17;;
44564;SDS011;30275;51.822;-0.326;2022-10-20T15:17:36;5.43;;;4.18;;
44564;SDS011;30275;51.822;-0.326;2022-10-20T15:22:59;4.57;;;2.53;;
44564;SDS011;30275;51.822;-0.326;2022-10-20T15:28:28;6.03;;;2.15;;
44564;SDS011;30275;51.822;-0.326;2022-10-20T15:30:59;2.60;;;1.80;;
44564;SDS011;30275;51.822;-0.326;2022-10-20T15:33:27;2.65;;;1.60;;
44564;SDS011;30275;51.822;-0.326;2022-10-20T15:35:53;2.50;;;1.27;;
44564;SDS011;30275;51.822;-0.326;2022-10-20T15:38:19;2.97;;;1.70;;
44564;SDS011;30275;51.822;-0.326;2022-10-20T15:40:45;2.67;;;1.77;;
44564;SDS011;30275;51.822;-0.326;2022-10-20T15:43:11;2.47;;;1.58;;
44564;SDS011;30275;51.822;-0.326;2022-10-20T15:45:40;3.30;;;1.63;;
44564;SDS011;30275;51.822;-0.326;2022-10-20T15:48:08;4.18;;;1.80;;
44564;SDS011;30275;51.822;-0.326;2022-10-20T15:50:35;3.10;;;1.95;;
44564;SDS011;30275;51.822;-0.326;2022-10-20T15:53:01;3.45;;;1.70;;
44564;SDS011;30275;51.822;-0.326;2022-10-20T15:55:29;3.53;;;1.60;;
44564;SDS011;30275;51.822;-0.326;2022-10-20T15:57:56;4.75;;;1.95;;
44564;SDS011;30275;51.822;-0.326;2022-10-20T16:00:24;3.05;;;1.88;;
44564;SDS011;30275;51.822;-0.326;2022-10-20T16:02:51;2.53;;;1.60;;
44564;SDS011;30275;51.822;-0.326;2022-10-20T16:05:17;2.83;;;1.60;;
44564;SDS011;30275;51.822;-0.326;2022-10-20T16:07:44;2.50;;;1.40;;
44564;SDS011;30275;51.822;-0.326;2022-10-20T16:10:10;4.45;;;2.92;;
44564;SDS011;30275;51.822;-0.326;2022-10-20T16:12:37;4.70;;;1.90;;
44564;SDS011;30275;51.822;-0.326;2022-10-20T16:15:05;4.13;;;1.90;;
44564;SDS011;30275;51.822;-0.326;2022-10-20T16:17:32;2.83;;;1.60;;
44564;SDS011;30275;51.822;-0.326;2022-10-20T16:19:58;3.05;;;1.73;;
44564;SDS011;30275;51.822;-0.326;2022-10-20T16:22:23;3.63;;;1.77;;
44564;SDS011;30275;51.822;-0.326;2022-10-20T16:24:50;6.20;;;1.95;;
44564;SDS011;30275;51.822;-0.326;2022-10-20T16:27:16;3.83;;;1.98;;
44564;SDS011;30275;51.822;-0.326;2022-10-20T16:29:42;4.97;;;1.92;;
44564;SDS011;30275;51.822;-0.326;2022-10-20T16:32:07;5.35;;;1.88;;
44564;SDS011;30275;51.822;-0.326;2022-10-20T16:34:33;3.53;;;1.95;;
44564;SDS011;30275;51.822;-0.326;2022-10-20T16:36:58;4.15;;;2.10;;
44564;SDS011;30275;51.822;-0.326;2022-10-20T16:39:24;4.57;;;1.98;;
44564;SDS011;30275;51.822;-0.326;2022-10-20T16:41:50;2.80;;;1.90;;
44564;SDS011;30275;51.822;-0.326;2022-10-20T16:44:15;4.47;;;2.28;;
44564;SDS011;30275;51.822;-0.326;2022-10-20T16:46:41;3.90;;;1.92;;
44564;SDS011;30275;51.822;-0.326;2022-10-20T16:49:07;4.43;;;2.70;;
44564;SDS011;30275;51.822;-0.326;2022-10-20T16:51:32;2.88;;;1.98;;
44564;SDS011;30275;51.822;-0.326;2022-10-20T16:53:58;5.78;;;2.60;;
44564;SDS011;30275;51.822;-0.326;2022-10-20T16:56:24;4.78;;;2.50;;
44564;SDS011;30275;51.822;-0.326;2022-10-20T16:58:50;3.92;;;2.30;;
44564;SDS011;30275;51.822;-0.326;2022-10-20T17:01:16;4.82;;;2.13;;
44564;SDS011;30275;51.822;-0.326;2022-10-20T17:03:44;4.72;;;2.40;;
44564;SDS011;30275;51.822;-0.326;2022-10-20T17:06:12;6.07;;;2.85;;